Terminal Aerodrome Forecast
Issued by NWS

Home | Current Version | Previous Version | Text Only | Print | Product List | Glossary On
Versions: 1 2 3 4 5 6 7 8 9 10 11 12 13 14 15 16 17 18 19 20
000
FTUS43 KDLH 030525
TAFHYR
TAF
KHYR 030525Z 0306/0406 VRB04KT P6SM SCT070
     FM031400 31009KT P6SM SCT030 BKN070
     FM031600 32010KT P6SM SCT040 BKN080
     FM032100 32010KT P6SM VCSH BKN040
     FM040100 VRB03KT P6SM SCT050 SCT090=

USA.gov is the U.S. government's official web portal to all federal, state and local government web resources and services.